sensor_id;sensor_type;location;lat;lon;timestamp;temperature;humidity
11005;DHT22;5555;59.622;16.556;2023-06-10T00:01:50;9.00;91.10
11005;DHT22;5555;59.622;16.556;2023-06-10T00:04:17;9.00;91.40
11005;DHT22;5555;59.622;16.556;2023-06-10T00:06:46;9.00;91.70
11005;DHT22;5555;59.622;16.556;2023-06-10T00:09:15;8.80;92.00
11005;DHT22;5555;59.622;16.556;2023-06-10T00:11:41;8.80;92.30
11005;DHT22;5555;59.622;16.556;2023-06-10T00:14:07;8.70;92.50
11005;DHT22;5555;59.622;16.556;2023-06-10T00:16:33;8.70;92.70
11005;DHT22;5555;59.622;16.556;2023-06-10T00:19:00;8.60;92.40
11005;DHT22;5555;59.622;16.556;2023-06-10T00:21:32;8.50;92.70
11005;DHT22;5555;59.622;16.556;2023-06-10T00:24:07;8.40;93.20
11005;DHT22;5555;59.622;16.556;2023-06-10T00:26:38;8.40;93.90
11005;DHT22;5555;59.622;16.556;2023-06-10T00:29:05;8.50;94.60
11005;DHT22;5555;59.622;16.556;2023-06-10T00:31:30;8.40;94.60
11005;DHT22;5555;59.622;16.556;2023-06-10T00:33:56;8.30;95.10
11005;DHT22;5555;59.622;16.556;2023-06-10T00:36:22;8.20;95.50
11005;DHT22;5555;59.622;16.556;2023-06-10T00:38:47;8.20;96.10
11005;DHT22;5555;59.622;16.556;2023-06-10T00:41:13;8.20;96.40
11005;DHT22;5555;59.622;16.556;2023-06-10T00:43:39;8.20;96.60
11005;DHT22;5555;59.622;16.556;2023-06-10T00:46:05;8.20;97.40
11005;DHT22;5555;59.622;16.556;2023-06-10T00:48:31;8.10;98.10
11005;DHT22;5555;59.622;16.556;2023-06-10T00:50:57;8.00;98.40
11005;DHT22;5555;59.622;16.556;2023-06-10T00:53:23;7.90;99.10
11005;DHT22;5555;59.622;16.556;2023-06-10T00:55:50;7.90;99.90
11005;DHT22;5555;59.622;16.556;2023-06-10T00:58:16;7.80;99.90
11005;DHT22;5555;59.622;16.556;2023-06-10T01:00:42;7.70;99.90
11005;DHT22;5555;59.622;16.556;2023-06-10T01:03:07;7.60;99.90
11005;DHT22;5555;59.622;16.556;2023-06-10T01:05:37;7.60;99.90
11005;DHT22;5555;59.622;16.556;2023-06-10T01:08:14;7.60;99.90
11005;DHT22;5555;59.622;16.556;2023-06-10T01:11:04;7.50;99.90
11005;DHT22;5555;59.622;16.556;2023-06-10T01:13:34;7.50;99.90
11005;DHT22;5555;59.622;16.556;2023-06-10T01:16:00;7.50;99.90
11005;DHT22;5555;59.622;16.556;2023-06-10T01:43:25;7.20;99.90
11005;DHT22;5555;59.622;16.556;2023-06-10T01:45:50;7.20;99.90
11005;DHT22;5555;59.622;16.556;2023-06-10T01:48:16;7.10;99.90
11005;DHT22;5555;59.622;16.556;2023-06-10T01:50:42;7.10;99.90
11005;DHT22;5555;59.622;16.556;2023-06-10T01:53:09;7.00;99.90
11005;DHT22;5555;59.622;16.556;2023-06-10T01:55:35;7.00;99.90
11005;DHT22;5555;59.622;16.556;2023-06-10T01:58:00;7.00;99.90
11005;DHT22;5555;59.622;16.556;2023-06-10T02:00:26;7.00;99.90
11005;DHT22;5555;59.622;16.556;2023-06-10T02:02:51;7.00;99.90
11005;DHT22;5555;59.622;16.556;2023-06-10T02:05:17;6.90;99.90
11005;DHT22;5555;59.622;16.556;2023-06-10T02:07:43;6.90;99.90
11005;DHT22;5555;59.622;16.556;2023-06-10T02:10:09;6.90;99.90
11005;DHT22;5555;59.622;16.556;2023-06-10T02:12:35;6.90;99.90
11005;DHT22;5555;59.622;16.556;2023-06-10T02:15:00;6.90;99.90
11005;DHT22;5555;59.622;16.556;2023-06-10T02:17:26;6.90;99.90
11005;DHT22;5555;59.622;16.556;2023-06-10T02:19:51;6.90;99.90
11005;DHT22;5555;59.622;16.556;2023-06-10T02:22:22;6.90;99.90
11005;DHT22;5555;59.622;16.556;2023-06-10T02:24:48;6.90;99.90
11005;DHT22;5555;59.622;16.556;2023-06-10T02:27:15;6.90;99.90
11005;DHT22;5555;59.622;16.556;2023-06-10T02:29:40;6.90;99.90
11005;DHT22;5555;59.622;16.556;2023-06-10T02:32:07;6.90;99.90
11005;DHT22;5555;59.622;16.556;2023-06-10T02:34:33;6.90;99.90
11005;DHT22;5555;59.622;16.556;2023-06-10T02:36:59;6.90;99.90
11005;DHT22;5555;59.622;16.556;2023-06-10T02:39:24;6.80;99.90
11005;DHT22;5555;59.622;16.556;2023-06-10T02:41:50;6.80;99.90
11005;DHT22;5555;59.622;16.556;2023-06-10T02:44:17;6.90;99.90
11005;DHT22;5555;59.622;16.556;2023-06-10T02:46:43;6.90;99.90
11005;DHT22;5555;59.622;16.556;2023-06-10T02:49:09;6.90;99.90
11005;DHT22;5555;59.622;16.556;2023-06-10T02:51:36;6.90;99.90
11005;DHT22;5555;59.622;16.556;2023-06-10T02:54:02;6.90;99.90
11005;DHT22;5555;59.622;16.556;2023-06-10T02:56:28;6.90;99.90
11005;DHT22;5555;59.622;16.556;2023-06-10T02:58:53;6.90;99.90
11005;DHT22;5555;59.622;16.556;2023-06-10T03:01:19;6.90;99.90
11005;DHT22;5555;59.622;16.556;2023-06-10T03:03:45;7.00;99.90
11005;DHT22;5555;59.622;16.556;2023-06-10T03:06:12;7.00;99.90
11005;DHT22;5555;59.622;16.556;2023-06-10T03:08:38;7.00;99.90
11005;DHT22;5555;59.622;16.556;2023-06-10T03:11:04;7.00;99.90
11005;DHT22;5555;59.622;16.556;2023-06-10T03:13:30;7.00;99.90
11005;DHT22;5555;59.622;16.556;2023-06-10T03:15:55;7.10;99.90
11005;DHT22;5555;59.622;16.556;2023-06-10T03:18:25;7.10;99.90
11005;DHT22;5555;59.622;16.556;2023-06-10T03:20:51;7.10;99.90
11005;DHT22;5555;59.622;16.556;2023-06-10T03:23:17;7.20;99.90
11005;DHT22;5555;59.622;16.556;2023-06-10T03:25:44;7.30;99.90
11005;DHT22;5555;59.622;16.556;2023-06-10T03:30:36;7.30;99.90
11005;DHT22;5555;59.622;16.556;2023-06-10T03:42:45;7.70;99.90
11005;DHT22;5555;59.622;16.556;2023-06-10T05:49:44;13.20;99.90
11005;DHT22;5555;59.622;16.556;2023-06-10T05:52:13;13.40;99.90
11005;DHT22;5555;59.622;16.556;2023-06-10T05:54:39;13.50;99.90
11005;DHT22;5555;59.622;16.556;2023-06-10T05:57:05;13.50;99.90
11005;DHT22;5555;59.622;16.556;2023-06-10T06:31:09;14.20;99.90
11005;DHT22;5555;59.622;16.556;2023-06-10T06:33:35;14.40;99.90
11005;DHT22;5555;59.622;16.556;2023-06-10T06:36:00;14.60;99.90
11005;DHT22;5555;59.622;16.556;2023-06-10T07:17:26;15.90;93.80
11005;DHT22;5555;59.622;16.556;2023-06-10T07:41:49;16.10;92.80
11005;DHT22;5555;59.622;16.556;2023-06-10T08:01:17;16.80;91.10
11005;DHT22;5555;59.622;16.556;2023-06-10T08:33:03;17.70;93.20
11005;DHT22;5555;59.622;16.556;2023-06-10T10:31:56;20.50;86.40
11005;DHT22;5555;59.622;16.556;2023-06-10T10:39:18;20.60;84.40
11005;DHT22;5555;59.622;16.556;2023-06-10T10:41:44;20.70;84.50
11005;DHT22;5555;59.622;16.556;2023-06-10T11:31:24;22.30;55.80
11005;DHT22;5555;59.622;16.556;2023-06-10T11:33:53;22.20;55.80
11005;DHT22;5555;59.622;16.556;2023-06-10T11:36:19;22.90;56.00
11005;DHT22;5555;59.622;16.556;2023-06-10T11:38:45;23.10;58.10
11005;DHT22;5555;59.622;16.556;2023-06-10T11:41:11;22.60;55.90
11005;DHT22;5555;59.622;16.556;2023-06-10T11:43:43;23.20;57.70
11005;DHT22;5555;59.622;16.556;2023-06-10T11:46:13;23.80;54.30
11005;DHT22;5555;59.622;16.556;2023-06-10T11:48:39;24.20;54.40
11005;DHT22;5555;59.622;16.556;2023-06-10T11:51:08;24.20;55.20
11005;DHT22;5555;59.622;16.556;2023-06-10T11:53:34;24.40;53.80
11005;DHT22;5555;59.622;16.556;2023-06-10T11:56:00;25.00;52.90
11005;DHT22;5555;59.622;16.556;2023-06-10T11:58:26;24.50;54.00
11005;DHT22;5555;59.622;16.556;2023-06-10T12:00:54;24.90;54.30
11005;DHT22;5555;59.622;16.556;2023-06-10T12:03:24;24.60;54.40
11005;DHT22;5555;59.622;16.556;2023-06-10T12:05:59;24.40;53.40
11005;DHT22;5555;59.622;16.556;2023-06-10T12:08:26;25.30;53.60
11005;DHT22;5555;59.622;16.556;2023-06-10T12:10:53;24.80;52.80
11005;DHT22;5555;59.622;16.556;2023-06-10T12:13:19;25.50;52.40
11005;DHT22;5555;59.622;16.556;2023-06-10T12:15:45;25.70;52.50
11005;DHT22;5555;59.622;16.556;2023-06-10T12:18:21;25.50;56.50
11005;DHT22;5555;59.622;16.556;2023-06-10T12:20:48;25.50;57.40
11005;DHT22;5555;59.622;16.556;2023-06-10T12:23:16;26.00;55.40
11005;DHT22;5555;59.622;16.556;2023-06-10T12:30:46;25.40;53.30
11005;DHT22;5555;59.622;16.556;2023-06-10T12:33:19;25.70;52.50
11005;DHT22;5555;59.622;16.556;2023-06-10T12:35:49;25.50;53.20
11005;DHT22;5555;59.622;16.556;2023-06-10T12:38:21;26.80;52.40
11005;DHT22;5555;59.622;16.556;2023-06-10T12:40:48;25.90;54.00
11005;DHT22;5555;59.622;16.556;2023-06-10T12:43:18;25.70;53.30
11005;DHT22;5555;59.622;16.556;2023-06-10T12:45:44;26.30;53.60
11005;DHT22;5555;59.622;16.556;2023-06-10T12:48:21;27.20;52.00
11005;DHT22;5555;59.622;16.556;2023-06-10T12:50:52;26.30;52.30
11005;DHT22;5555;59.622;16.556;2023-06-10T12:53:19;25.60;51.80
11005;DHT22;5555;59.622;16.556;2023-06-10T12:55:45;25.70;54.50
11005;DHT22;5555;59.622;16.556;2023-06-10T12:58:11;27.00;51.80
11005;DHT22;5555;59.622;16.556;2023-06-10T13:00:37;26.60;51.30
11005;DHT22;5555;59.622;16.556;2023-06-10T13:03:03;26.20;56.20
11005;DHT22;5555;59.622;16.556;2023-06-10T13:05:31;26.70;53.10
11005;DHT22;5555;59.622;16.556;2023-06-10T13:07:57;27.90;52.00
11005;DHT22;5555;59.622;16.556;2023-06-10T13:10:23;27.30;54.40
11005;DHT22;5555;59.622;16.556;2023-06-10T13:12:50;28.70;50.40
11005;DHT22;5555;59.622;16.556;2023-06-10T13:15:16;28.20;50.30
11005;DHT22;5555;59.622;16.556;2023-06-10T13:17:45;28.20;52.60
11005;DHT22;5555;59.622;16.556;2023-06-10T13:20:14;27.30;53.20
11005;DHT22;5555;59.622;16.556;2023-06-10T13:22:41;28.00;50.30
11005;DHT22;5555;59.622;16.556;2023-06-10T13:25:08;29.00;49.10
11005;DHT22;5555;59.622;16.556;2023-06-10T13:27:34;28.60;51.60
11005;DHT22;5555;59.622;16.556;2023-06-10T13:30:00;28.30;49.30
11005;DHT22;5555;59.622;16.556;2023-06-10T13:32:25;28.60;49.00
11005;DHT22;5555;59.622;16.556;2023-06-10T13:34:51;28.30;48.70
11005;DHT22;5555;59.622;16.556;2023-06-10T13:37:18;28.90;48.50
11005;DHT22;5555;59.622;16.556;2023-06-10T13:39:45;27.80;48.20
11005;DHT22;5555;59.622;16.556;2023-06-10T13:42:19;27.70;49.20
11005;DHT22;5555;59.622;16.556;2023-06-10T13:44:49;27.60;50.30
11005;DHT22;5555;59.622;16.556;2023-06-10T13:47:15;27.90;48.40
11005;DHT22;5555;59.622;16.556;2023-06-10T13:49:40;29.30;48.90
11005;DHT22;5555;59.622;16.556;2023-06-10T13:52:07;28.20;47.40
11005;DHT22;5555;59.622;16.556;2023-06-10T13:54:33;28.90;48.20
11005;DHT22;5555;59.622;16.556;2023-06-10T13:56:59;28.60;49.60
11005;DHT22;5555;59.622;16.556;2023-06-10T13:59:25;28.10;49.60
11005;DHT22;5555;59.622;16.556;2023-06-10T14:01:51;28.70;48.70
11005;DHT22;5555;59.622;16.556;2023-06-10T14:04:17;28.50;52.10
11005;DHT22;5555;59.622;16.556;2023-06-10T14:06:42;28.60;47.60
11005;DHT22;5555;59.622;16.556;2023-06-10T14:09:08;28.30;50.60
11005;DHT22;5555;59.622;16.556;2023-06-10T14:11:33;28.00;48.00
11005;DHT22;5555;59.622;16.556;2023-06-10T14:13:59;28.20;51.00
11005;DHT22;5555;59.622;16.556;2023-06-10T14:16:26;28.30;49.20
11005;DHT22;5555;59.622;16.556;2023-06-10T14:18:52;29.10;50.30
11005;DHT22;5555;59.622;16.556;2023-06-10T14:21:17;29.00;49.00
11005;DHT22;5555;59.622;16.556;2023-06-10T14:23:43;29.40;46.60
11005;DHT22;5555;59.622;16.556;2023-06-10T14:26:09;29.30;47.30
11005;DHT22;5555;59.622;16.556;2023-06-10T14:28:35;29.80;46.40
11005;DHT22;5555;59.622;16.556;2023-06-10T14:31:01;29.60;49.20
11005;DHT22;5555;59.622;16.556;2023-06-10T14:33:26;28.70;47.60
11005;DHT22;5555;59.622;16.556;2023-06-10T14:35:52;28.80;49.90
11005;DHT22;5555;59.622;16.556;2023-06-10T14:38:18;29.40;47.30
11005;DHT22;5555;59.622;16.556;2023-06-10T14:40:44;29.70;45.60
11005;DHT22;5555;59.622;16.556;2023-06-10T14:43:09;29.30;46.50
11005;DHT22;5555;59.622;16.556;2023-06-10T14:45:42;29.00;47.00
11005;DHT22;5555;59.622;16.556;2023-06-10T14:48:08;28.90;47.00
11005;DHT22;5555;59.622;16.556;2023-06-10T14:50:37;29.80;45.00
11005;DHT22;5555;59.622;16.556;2023-06-10T14:53:03;29.60;45.50
11005;DHT22;5555;59.622;16.556;2023-06-10T14:55:28;29.50;45.90
11005;DHT22;5555;59.622;16.556;2023-06-10T14:57:54;29.30;47.30
11005;DHT22;5555;59.622;16.556;2023-06-10T15:00:21;29.30;46.80
11005;DHT22;5555;59.622;16.556;2023-06-10T15:02:49;29.40;45.70
11005;DHT22;5555;59.622;16.556;2023-06-10T15:05:15;29.50;44.50
11005;DHT22;5555;59.622;16.556;2023-06-10T15:07:43;29.90;43.40
11005;DHT22;5555;59.622;16.556;2023-06-10T15:10:09;29.40;45.00
11005;DHT22;5555;59.622;16.556;2023-06-10T15:12:35;29.50;45.50
11005;DHT22;5555;59.622;16.556;2023-06-10T15:15:02;29.70;45.20
11005;DHT22;5555;59.622;16.556;2023-06-10T15:17:28;29.50;44.70
11005;DHT22;5555;59.622;16.556;2023-06-10T15:19:54;29.40;44.20
11005;DHT22;5555;59.622;16.556;2023-06-10T15:24:45;30.60;43.80
11005;DHT22;5555;59.622;16.556;2023-06-10T15:27:11;30.10;44.50
11005;DHT22;5555;59.622;16.556;2023-06-10T15:29:37;29.90;43.90
11005;DHT22;5555;59.622;16.556;2023-06-10T15:32:03;30.70;43.80
11005;DHT22;5555;59.622;16.556;2023-06-10T15:34:28;31.30;42.50
11005;DHT22;5555;59.622;16.556;2023-06-10T15:36:54;31.70;42.00
11005;DHT22;5555;59.622;16.556;2023-06-10T15:39:20;31.70;41.80
11005;DHT22;5555;59.622;16.556;2023-06-10T15:41:45;31.30;45.10
11005;DHT22;5555;59.622;16.556;2023-06-10T15:44:11;30.30;45.20
11005;DHT22;5555;59.622;16.556;2023-06-10T15:46:37;29.90;46.00
11005;DHT22;5555;59.622;16.556;2023-06-10T15:49:03;29.30;47.30
11005;DHT22;5555;59.622;16.556;2023-06-10T15:51:29;30.20;44.90
11005;DHT22;5555;59.622;16.556;2023-06-10T15:53:55;30.90;42.60
11005;DHT22;5555;59.622;16.556;2023-06-10T15:56:21;31.20;43.50
11005;DHT22;5555;59.622;16.556;2023-06-10T15:58:47;31.40;42.40
11005;DHT22;5555;59.622;16.556;2023-06-10T16:01:12;30.50;43.70
11005;DHT22;5555;59.622;16.556;2023-06-10T16:03:39;30.50;42.20
11005;DHT22;5555;59.622;16.556;2023-06-10T16:06:05;31.00;42.00
11005;DHT22;5555;59.622;16.556;2023-06-10T16:08:31;30.50;45.50
11005;DHT22;5555;59.622;16.556;2023-06-10T16:10:57;31.50;43.80
11005;DHT22;5555;59.622;16.556;2023-06-10T16:13:22;31.10;41.80
11005;DHT22;5555;59.622;16.556;2023-06-10T16:15:48;29.80;43.00
11005;DHT22;5555;59.622;16.556;2023-06-10T16:18:14;29.50;44.90
11005;DHT22;5555;59.622;16.556;2023-06-10T16:20:39;29.70;43.80
11005;DHT22;5555;59.622;16.556;2023-06-10T16:23:05;29.90;43.40
11005;DHT22;5555;59.622;16.556;2023-06-10T16:25:31;30.90;42.90
11005;DHT22;5555;59.622;16.556;2023-06-10T16:27:59;30.90;42.50
11005;DHT22;5555;59.622;16.556;2023-06-10T16:30:26;31.10;42.60
11005;DHT22;5555;59.622;16.556;2023-06-10T16:32:51;30.50;44.00
11005;DHT22;5555;59.622;16.556;2023-06-10T16:35:17;30.30;42.30
11005;DHT22;5555;59.622;16.556;2023-06-10T16:37:43;31.00;43.70
11005;DHT22;5555;59.622;16.556;2023-06-10T16:40:09;30.30;42.20
11005;DHT22;5555;59.622;16.556;2023-06-10T16:42:35;30.30;43.00
11005;DHT22;5555;59.622;16.556;2023-06-10T16:45:00;30.40;42.10
11005;DHT22;5555;59.622;16.556;2023-06-10T16:47:27;31.10;41.20
11005;DHT22;5555;59.622;16.556;2023-06-10T16:49:52;29.90;41.50
11005;DHT22;5555;59.622;16.556;2023-06-10T16:52:18;30.50;42.30
11005;DHT22;5555;59.622;16.556;2023-06-10T16:54:43;29.70;42.00
11005;DHT22;5555;59.622;16.556;2023-06-10T16:57:09;29.00;44.00
11005;DHT22;5555;59.622;16.556;2023-06-10T16:59:36;30.10;42.20
11005;DHT22;5555;59.622;16.556;2023-06-10T17:02:02;30.70;40.80
11005;DHT22;5555;59.622;16.556;2023-06-10T17:04:27;30.50;41.60
11005;DHT22;5555;59.622;16.556;2023-06-10T17:06:53;30.20;42.40
11005;DHT22;5555;59.622;16.556;2023-06-10T17:09:19;30.00;40.40
11005;DHT22;5555;59.622;16.556;2023-06-10T17:11:45;30.20;41.60
11005;DHT22;5555;59.622;16.556;2023-06-10T17:14:11;30.50;42.00
11005;DHT22;5555;59.622;16.556;2023-06-10T17:16:37;30.30;41.80
11005;DHT22;5555;59.622;16.556;2023-06-10T17:19:02;30.50;41.90
11005;DHT22;5555;59.622;16.556;2023-06-10T17:21:28;30.00;43.70
11005;DHT22;5555;59.622;16.556;2023-06-10T17:23:53;30.30;41.60
11005;DHT22;5555;59.622;16.556;2023-06-10T17:26:19;30.80;41.70
11005;DHT22;5555;59.622;16.556;2023-06-10T17:28:45;30.80;40.80
11005;DHT22;5555;59.622;16.556;2023-06-10T17:31:11;31.10;40.70
11005;DHT22;5555;59.622;16.556;2023-06-10T17:33:36;30.90;40.90
11005;DHT22;5555;59.622;16.556;2023-06-10T17:36:02;30.80;42.00
11005;DHT22;5555;59.622;16.556;2023-06-10T17:38:28;30.00;43.50
11005;DHT22;5555;59.622;16.556;2023-06-10T17:40:53;29.20;43.60
11005;DHT22;5555;59.622;16.556;2023-06-10T17:43:19;28.10;43.50
11005;DHT22;5555;59.622;16.556;2023-06-10T17:45:46;28.30;45.40
11005;DHT22;5555;59.622;16.556;2023-06-10T17:48:14;29.40;43.40
11005;DHT22;5555;59.622;16.556;2023-06-10T17:50:40;29.50;42.30
11005;DHT22;5555;59.622;16.556;2023-06-10T17:53:06;29.80;42.00
11005;DHT22;5555;59.622;16.556;2023-06-10T17:55:31;30.10;41.20
11005;DHT22;5555;59.622;16.556;2023-06-10T17:57:57;29.40;41.80
11005;DHT22;5555;59.622;16.556;2023-06-10T18:00:23;28.90;43.00
11005;DHT22;5555;59.622;16.556;2023-06-10T18:02:49;28.60;44.40
11005;DHT22;5555;59.622;16.556;2023-06-10T18:05:15;28.60;44.50
11005;DHT22;5555;59.622;16.556;2023-06-10T18:07:41;27.30;45.00
11005;DHT22;5555;59.622;16.556;2023-06-10T18:10:08;27.30;45.70
11005;DHT22;5555;59.622;16.556;2023-06-10T18:12:34;27.60;45.00
11005;DHT22;5555;59.622;16.556;2023-06-10T18:15:00;27.50;45.30
11005;DHT22;5555;59.622;16.556;2023-06-10T18:17:25;27.80;45.20
11005;DHT22;5555;59.622;16.556;2023-06-10T18:19:51;27.60;44.80
11005;DHT22;5555;59.622;16.556;2023-06-10T18:22:17;27.30;46.60
11005;DHT22;5555;59.622;16.556;2023-06-10T18:24:43;27.10;47.20
11005;DHT22;5555;59.622;16.556;2023-06-10T18:27:08;26.80;46.80
11005;DHT22;5555;59.622;16.556;2023-06-10T18:29:35;26.40;46.60
11005;DHT22;5555;59.622;16.556;2023-06-10T18:32:01;26.20;49.80
11005;DHT22;5555;59.622;16.556;2023-06-10T18:34:27;25.60;48.60
11005;DHT22;5555;59.622;16.556;2023-06-10T18:36:53;25.90;49.30
11005;DHT22;5555;59.622;16.556;2023-06-10T18:39:18;25.80;49.30
11005;DHT22;5555;59.622;16.556;2023-06-10T18:41:44;25.80;49.40
11005;DHT22;5555;59.622;16.556;2023-06-10T18:44:10;25.00;50.50
11005;DHT22;5555;59.622;16.556;2023-06-10T18:46:36;24.70;51.10
11005;DHT22;5555;59.622;16.556;2023-06-10T18:49:02;24.50;51.30
11005;DHT22;5555;59.622;16.556;2023-06-10T18:51:28;24.60;51.20
11005;DHT22;5555;59.622;16.556;2023-06-10T18:53:53;24.80;51.10
11005;DHT22;5555;59.622;16.556;2023-06-10T18:56:19;25.00;51.40
11005;DHT22;5555;59.622;16.556;2023-06-10T18:58:45;25.20;51.10
11005;DHT22;5555;59.622;16.556;2023-06-10T19:01:12;25.10;50.80
11005;DHT22;5555;59.622;16.556;2023-06-10T19:03:38;24.50;50.20
11005;DHT22;5555;59.622;16.556;2023-06-10T19:06:04;24.40;51.10
11005;DHT22;5555;59.622;16.556;2023-06-10T19:08:31;24.40;51.00
11005;DHT22;5555;59.622;16.556;2023-06-10T19:10:56;23.40;51.80
11005;DHT22;5555;59.622;16.556;2023-06-10T19:15:48;21.90;52.70
11005;DHT22;5555;59.622;16.556;2023-06-10T19:18:14;21.40;54.90
11005;DHT22;5555;59.622;16.556;2023-06-10T19:20:39;20.60;55.80
11005;DHT22;5555;59.622;16.556;2023-06-10T19:23:06;20.30;56.60
11005;DHT22;5555;59.622;16.556;2023-06-10T19:25:32;20.10;57.10
11005;DHT22;5555;59.622;16.556;2023-06-10T19:27:58;19.80;57.20
11005;DHT22;5555;59.622;16.556;2023-06-10T19:30:23;19.60;57.40
11005;DHT22;5555;59.622;16.556;2023-06-10T19:32:49;19.20;57.40
11005;DHT22;5555;59.622;16.556;2023-06-10T19:35:15;18.90;58.20
11005;DHT22;5555;59.622;16.556;2023-06-10T19:37:40;18.60;58.20
11005;DHT22;5555;59.622;16.556;2023-06-10T19:40:07;18.40;57.90
11005;DHT22;5555;59.622;16.556;2023-06-10T19:42:32;18.30;58.20
11005;DHT22;5555;59.622;16.556;2023-06-10T19:45:02;18.10;58.30
11005;DHT22;5555;59.622;16.556;2023-06-10T19:47:28;17.80;59.40
11005;DHT22;5555;59.622;16.556;2023-06-10T19:49:54;17.70;59.70
11005;DHT22;5555;59.622;16.556;2023-06-10T19:52:19;17.60;60.30
11005;DHT22;5555;59.622;16.556;2023-06-10T19:54:45;17.50;61.00
11005;DHT22;5555;59.622;16.556;2023-06-10T19:57:11;17.30;61.60
11005;DHT22;5555;59.622;16.556;2023-06-10T19:59:36;17.20;61.80
11005;DHT22;5555;59.622;16.556;2023-06-10T20:02:02;17.00;62.00
11005;DHT22;5555;59.622;16.556;2023-06-10T20:04:28;17.00;62.60
11005;DHT22;5555;59.622;16.556;2023-06-10T20:06:53;16.90;63.00
11005;DHT22;5555;59.622;16.556;2023-06-10T20:09:19;16.90;63.30
11005;DHT22;5555;59.622;16.556;2023-06-10T20:11:45;16.70;63.50
11005;DHT22;5555;59.622;16.556;2023-06-10T20:14:11;16.70;62.90
11005;DHT22;5555;59.622;16.556;2023-06-10T20:16:36;16.60;62.60
11005;DHT22;5555;59.622;16.556;2023-06-10T20:19:02;16.50;63.30
11005;DHT22;5555;59.622;16.556;2023-06-10T20:21:28;16.50;62.50
11005;DHT22;5555;59.622;16.556;2023-06-10T20:23:54;16.40;62.20
11005;DHT22;5555;59.622;16.556;2023-06-10T20:26:19;16.30;62.00
11005;DHT22;5555;59.622;16.556;2023-06-10T20:28:46;16.30;62.60
11005;DHT22;5555;59.622;16.556;2023-06-10T20:31:12;16.20;63.10
11005;DHT22;5555;59.622;16.556;2023-06-10T20:33:37;16.00;63.90
11005;DHT22;5555;59.622;16.556;2023-06-10T20:36:03;16.00;64.50
11005;DHT22;5555;59.622;16.556;2023-06-10T20:38:28;15.80;65.10
11005;DHT22;5555;59.622;16.556;2023-06-10T20:40:54;15.70;65.40
11005;DHT22;5555;59.622;16.556;2023-06-10T20:43:20;15.70;65.20
11005;DHT22;5555;59.622;16.556;2023-06-10T20:45:45;15.70;65.20
11005;DHT22;5555;59.622;16.556;2023-06-10T20:48:11;15.60;65.40
11005;DHT22;5555;59.622;16.556;2023-06-10T20:50:37;15.60;66.00
11005;DHT22;5555;59.622;16.556;2023-06-10T20:53:03;15.50;66.40
11005;DHT22;5555;59.622;16.556;2023-06-10T20:55:28;15.40;66.80
11005;DHT22;5555;59.622;16.556;2023-06-10T20:57:55;15.30;67.10
11005;DHT22;5555;59.622;16.556;2023-06-10T21:00:24;15.20;67.50
11005;DHT22;5555;59.622;16.556;2023-06-10T21:02:50;15.10;68.20
11005;DHT22;5555;59.622;16.556;2023-06-10T21:05:16;15.00;67.80
11005;DHT22;5555;59.622;16.556;2023-06-10T21:07:41;14.90;68.60
11005;DHT22;5555;59.622;16.556;2023-06-10T21:10:10;14.80;68.90
11005;DHT22;5555;59.622;16.556;2023-06-10T21:12:36;14.80;68.90
11005;DHT22;5555;59.622;16.556;2023-06-10T21:15:02;14.70;69.30
11005;DHT22;5555;59.622;16.556;2023-06-10T21:17:28;14.70;69.10
11005;DHT22;5555;59.622;16.556;2023-06-10T21:19:53;14.60;69.40
11005;DHT22;5555;59.622;16.556;2023-06-10T21:22:19;14.60;69.60
11005;DHT22;5555;59.622;16.556;2023-06-10T21:24:45;14.60;69.40
11005;DHT22;5555;59.622;16.556;2023-06-10T21:27:11;14.60;69.20
11005;DHT22;5555;59.622;16.556;2023-06-10T21:29:37;14.60;69.30
11005;DHT22;5555;59.622;16.556;2023-06-10T21:32:02;14.60;68.80
11005;DHT22;5555;59.622;16.556;2023-06-10T21:34:28;14.50;69.20
11005;DHT22;5555;59.622;16.556;2023-06-10T21:36:54;14.50;69.80
11005;DHT22;5555;59.622;16.556;2023-06-10T21:39:19;14.40;70.50
11005;DHT22;5555;59.622;16.556;2023-06-10T21:41:45;14.40;70.80
11005;DHT22;5555;59.622;16.556;2023-06-10T21:44:11;14.30;71.30
11005;DHT22;5555;59.622;16.556;2023-06-10T21:46:37;14.30;71.80
11005;DHT22;5555;59.622;16.556;2023-06-10T21:49:03;14.20;72.40
11005;DHT22;5555;59.622;16.556;2023-06-10T21:51:29;14.10;72.70
11005;DHT22;5555;59.622;16.556;2023-06-10T21:53:55;14.00;73.30
11005;DHT22;5555;59.622;16.556;2023-06-10T21:56:20;14.00;73.70
11005;DHT22;5555;59.622;16.556;2023-06-10T21:58:46;13.90;74.20
11005;DHT22;5555;59.622;16.556;2023-06-10T22:01:16;13.80;74.50
11005;DHT22;5555;59.622;16.556;2023-06-10T22:03:42;13.70;75.30
11005;DHT22;5555;59.622;16.556;2023-06-10T22:06:08;13.70;75.50
11005;DHT22;5555;59.622;16.556;2023-06-10T22:08:35;13.70;76.10
11005;DHT22;5555;59.622;16.556;2023-06-10T22:11:01;13.50;76.10
11005;DHT22;5555;59.622;16.556;2023-06-10T22:13:26;13.50;76.60
11005;DHT22;5555;59.622;16.556;2023-06-10T22:15:52;13.50;76.40
11005;DHT22;5555;59.622;16.556;2023-06-10T22:18:18;13.40;77.00
11005;DHT22;5555;59.622;16.556;2023-06-10T22:20:43;13.20;77.90
11005;DHT22;5555;59.622;16.556;2023-06-10T22:23:10;13.10;78.50
11005;DHT22;5555;59.622;16.556;2023-06-10T22:25:35;13.00;78.70
11005;DHT22;5555;59.622;16.556;2023-06-10T22:28:01;13.10;79.20
11005;DHT22;5555;59.622;16.556;2023-06-10T22:30:26;13.00;79.20
11005;DHT22;5555;59.622;16.556;2023-06-10T22:32:52;12.80;79.90
11005;DHT22;5555;59.622;16.556;2023-06-10T22:35:18;12.80;81.60
11005;DHT22;5555;59.622;16.556;2023-06-10T22:37:43;12.60;81.40
11005;DHT22;5555;59.622;16.556;2023-06-10T22:40:09;12.50;82.40
11005;DHT22;5555;59.622;16.556;2023-06-10T22:42:35;12.40;83.00
11005;DHT22;5555;59.622;16.556;2023-06-10T22:45:01;12.30;83.60
11005;DHT22;5555;59.622;16.556;2023-06-10T22:47:26;12.20;84.10
11005;DHT22;5555;59.622;16.556;2023-06-10T22:49:52;12.10;85.00
11005;DHT22;5555;59.622;16.556;2023-06-10T22:52:18;12.10;85.10
11005;DHT22;5555;59.622;16.556;2023-06-10T22:54:43;12.00;85.30
11005;DHT22;5555;59.622;16.556;2023-06-10T22:57:09;11.90;85.70
11005;DHT22;5555;59.622;16.556;2023-06-10T22:59:35;11.90;86.10
11005;DHT22;5555;59.622;16.556;2023-06-10T23:02:00;11.90;86.60
11005;DHT22;5555;59.622;16.556;2023-06-10T23:04:26;11.90;86.80
11005;DHT22;5555;59.622;16.556;2023-06-10T23:06:52;11.80;87.10
11005;DHT22;5555;59.622;16.556;2023-06-10T23:09:17;11.90;87.00
11005;DHT22;5555;59.622;16.556;2023-06-10T23:11:43;12.00;86.70
11005;DHT22;5555;59.622;16.556;2023-06-10T23:14:09;12.00;86.60
11005;DHT22;5555;59.622;16.556;2023-06-10T23:16:35;12.10;86.90
11005;DHT22;5555;59.622;16.556;2023-06-10T23:19:01;12.10;87.00
11005;DHT22;5555;59.622;16.556;2023-06-10T23:21:27;11.90;87.50
11005;DHT22;5555;59.622;16.556;2023-06-10T23:23:59;11.80;87.20
11005;DHT22;5555;59.622;16.556;2023-06-10T23:26:25;11.80;87.50
11005;DHT22;5555;59.622;16.556;2023-06-10T23:28:50;11.80;87.30